createdAt,value
2018-11-29T00:00:35.783Z,101510.34
2018-11-29T00:03:04.599Z,101505.11
2018-11-29T00:05:33.334Z,101508.20
2018-11-29T00:08:02.461Z,101509.21
2018-11-29T00:10:33.154Z,101513.22
2018-11-29T00:13:01.791Z,101521.49
2018-11-29T00:15:30.383Z,101506.36
2018-11-29T00:17:58.985Z,101509.44
2018-11-29T00:20:27.580Z,101515.51
2018-11-29T00:22:56.340Z,101515.85
2018-11-29T00:25:24.949Z,101517.67
2018-11-29T00:27:53.654Z,101525.14
2018-11-29T00:30:23.476Z,101529.61
2018-11-29T00:32:53.159Z,101522.98
2018-11-29T00:35:22.063Z,101514.77
2018-11-29T00:37:50.791Z,101510.39
2018-11-29T00:40:22.559Z,101502.62
2018-11-29T00:42:51.749Z,101497.49
2018-11-29T00:45:22.603Z,101511.02
2018-11-29T00:47:51.524Z,101513.17
2018-11-29T00:50:21.055Z,101503.65
2018-11-29T00:52:50.652Z,101511.80
2018-11-29T00:55:20.143Z,101512.26
2018-11-29T00:57:59.212Z,101508.63
2018-11-29T01:00:27.783Z,101508.55
2018-11-29T01:02:56.324Z,101500.50
2018-11-29T01:05:24.984Z,101504.50
2018-11-29T01:07:53.538Z,101494.56
2018-11-29T01:10:22.091Z,101487.90
2018-11-29T01:12:50.686Z,101486.81
2018-11-29T01:15:20.160Z,101489.89
2018-11-29T01:17:52.024Z,101490.70
2018-11-29T01:20:21.315Z,101492.52
2018-11-29T01:22:49.934Z,101500.82
2018-11-29T01:25:18.830Z,101495.45
2018-11-29T01:27:48.593Z,101500.73
2018-11-29T01:30:18.034Z,101503.60
2018-11-29T01:32:47.008Z,101506.21
2018-11-29T01:35:16.604Z,101503.30
2018-11-29T01:37:45.261Z,101501.84
2018-11-29T01:40:18.190Z,101507.14
2018-11-29T01:42:56.288Z,101504.07
2018-11-29T01:45:25.179Z,101504.07
2018-11-29T01:47:53.755Z,101504.67
2018-11-29T01:50:22.389Z,101496.31
2018-11-29T01:52:50.985Z,101490.01
2018-11-29T01:55:19.550Z,101490.77
2018-11-29T01:57:48.208Z,101487.56
2018-11-29T02:00:17.657Z,101493.00
2018-11-29T02:02:49.320Z,101495.16
2018-11-29T02:05:17.941Z,101493.38
2018-11-29T02:07:46.569Z,101491.11
2018-11-29T02:10:21.311Z,101496.00
2018-11-29T02:12:50.468Z,101488.88
2018-11-29T02:15:19.028Z,101485.88
2018-11-29T02:17:47.576Z,101481.80
2018-11-29T02:20:18.711Z,101469.42
2018-11-29T02:22:47.616Z,101477.34
2018-11-29T02:25:16.175Z,101461.16
2018-11-29T02:27:44.895Z,101458.00
2018-11-29T02:30:17.038Z,101466.38
2018-11-29T02:32:45.761Z,101459.06
2018-11-29T02:35:14.324Z,101455.53
2018-11-29T02:37:43.235Z,101457.00
2018-11-29T02:40:12.947Z,101459.02
2018-11-29T02:42:41.786Z,101448.57
2018-11-29T02:45:13.278Z,101449.09
2018-11-29T02:47:41.828Z,101455.23
2018-11-29T02:50:11.169Z,101449.63
2018-11-29T02:52:40.135Z,101451.86
2018-11-29T02:55:10.982Z,101451.95
2018-11-29T02:57:39.619Z,101434.05
2018-11-29T03:00:13.881Z,101445.88
2018-11-29T03:02:42.515Z,101444.41
2018-11-29T03:05:11.201Z,101445.80
2018-11-29T03:07:39.797Z,101448.79
2018-11-29T03:10:09.598Z,101444.88
2018-11-29T03:12:38.181Z,101453.25
2018-11-29T03:15:12.804Z,101453.84
2018-11-29T03:17:41.485Z,101453.38
2018-11-29T03:20:11.576Z,101459.02
2018-11-29T03:22:40.296Z,101462.98
2018-11-29T03:25:11.928Z,101454.55
2018-11-29T03:27:40.496Z,101451.56
2018-11-29T03:30:13.289Z,101460.06
2018-11-29T03:32:41.900Z,101457.16
2018-11-29T03:35:11.745Z,101452.94
2018-11-29T03:37:40.704Z,101446.00
2018-11-29T03:40:12.623Z,101443.39
2018-11-29T03:42:41.573Z,101451.84
2018-11-29T03:45:11.415Z,101446.41
2018-11-29T03:47:40.045Z,101436.86
2018-11-29T03:50:14.124Z,101437.10
2018-11-29T03:52:42.700Z,101438.41
2018-11-29T03:55:11.842Z,101427.97
2018-11-29T03:57:40.845Z,101421.45
2018-11-29T04:00:11.808Z,101422.92
2018-11-29T04:02:40.490Z,101422.08
2018-11-29T04:05:09.118Z,101419.98
2018-11-29T04:07:37.652Z,101417.91
2018-11-29T04:10:08.491Z,101412.69
2018-11-29T04:12:37.095Z,101416.22
2018-11-29T04:15:06.620Z,101422.83
2018-11-29T04:17:40.715Z,101413.61
2018-11-29T04:20:03.934Z,101405.41
2018-11-29T04:22:32.475Z,101404.88
2018-11-29T04:25:01.081Z,101402.27
2018-11-29T04:27:29.712Z,101397.97
2018-11-29T04:29:58.310Z,101396.36
2018-11-29T04:32:27.032Z,101396.66
2018-11-29T04:34:55.616Z,101392.45
2018-11-29T04:37:24.161Z,101404.11
2018-11-29T04:39:52.716Z,101400.73
2018-11-29T04:42:21.331Z,101399.48
2018-11-29T04:44:49.928Z,101396.83
2018-11-29T04:47:18.479Z,101390.69
2018-11-29T04:49:47.055Z,101395.06
2018-11-29T04:52:15.645Z,101392.50
2018-11-29T04:54:44.207Z,101393.42
2018-11-29T04:57:12.832Z,101401.41
2018-11-29T04:59:41.405Z,101403.94
2018-11-29T05:02:10.037Z,101405.31
2018-11-29T05:04:38.661Z,101426.56
2018-11-29T05:07:07.688Z,101415.67
2018-11-29T05:09:36.238Z,101422.27
2018-11-29T05:12:04.834Z,101424.24
2018-11-29T05:14:33.426Z,101424.70
2018-11-29T05:17:01.977Z,101426.84
2018-11-29T05:19:30.626Z,101428.31
2018-11-29T05:21:59.191Z,101428.01
2018-11-29T05:24:27.746Z,101434.22
2018-11-29T05:26:56.346Z,101445.16
2018-11-29T05:29:24.880Z,101437.49
2018-11-29T05:31:53.442Z,101437.57
2018-11-29T05:34:22.175Z,101447.28
2018-11-29T05:36:50.789Z,101453.19
2018-11-29T05:39:19.360Z,101454.48
2018-11-29T05:41:47.988Z,101456.25
2018-11-29T05:44:16.520Z,101452.42
2018-11-29T05:46:45.084Z,101445.02
2018-11-29T05:49:13.668Z,101451.62
2018-11-29T05:51:42.235Z,101439.20
2018-11-29T05:54:10.797Z,101440.05
2018-11-29T05:56:39.377Z,101455.88
2018-11-29T05:59:08.095Z,101455.68
2018-11-29T06:01:39.631Z,101456.45
2018-11-29T06:04:08.183Z,101458.21
2018-11-29T06:06:36.773Z,101459.20
2018-11-29T06:09:09.049Z,101447.48
2018-11-29T06:11:38.271Z,101452.31
2018-11-29T06:14:07.899Z,101450.77
2018-11-29T06:16:37.627Z,101436.36
2018-11-29T06:19:07.568Z,101446.33
2018-11-29T06:21:36.645Z,101432.88
2018-11-29T06:24:05.701Z,101431.11
2018-11-29T06:26:34.296Z,101437.00
2018-11-29T06:29:02.886Z,101429.95
2018-11-29T06:31:31.560Z,101432.02
2018-11-29T06:34:00.110Z,101418.40
2018-11-29T06:36:29.796Z,101414.33
2018-11-29T06:38:58.856Z,101404.23
2018-11-29T06:41:27.403Z,101402.39
2018-11-29T06:43:56.031Z,101394.19
2018-11-29T06:46:25.741Z,101394.58
2018-11-29T06:48:53.389Z,101386.67
2018-11-29T06:51:22.020Z,101397.86
2018-11-29T06:53:55.815Z,101396.48
2018-11-29T06:56:24.371Z,101391.19
2018-11-29T06:58:52.976Z,101388.99
2018-11-29T07:01:21.577Z,101395.19
2018-11-29T07:03:50.691Z,101391.83
2018-11-29T07:06:19.286Z,101402.43
2018-11-29T07:08:47.867Z,101405.09
2018-11-29T07:11:16.477Z,101387.55
2018-11-29T07:13:45.186Z,101387.92
2018-11-29T07:16:13.836Z,101383.39
2018-11-29T07:18:42.607Z,101383.63
2018-11-29T07:21:22.340Z,101385.86
2018-11-29T07:23:50.899Z,101386.32
2018-11-29T07:26:19.469Z,101384.39
2018-11-29T07:28:48.069Z,101372.02
2018-11-29T07:31:16.689Z,101367.88
2018-11-29T07:33:45.302Z,101377.63
2018-11-29T07:36:13.943Z,101368.30
2018-11-29T07:38:43.153Z,101379.08
2018-11-29T07:41:11.723Z,101384.02
2018-11-29T07:43:40.683Z,101383.50
2018-11-29T07:46:09.255Z,101389.19
2018-11-29T07:48:37.860Z,101391.11
2018-11-29T07:51:06.837Z,101396.06
2018-11-29T07:53:35.480Z,101394.53
2018-11-29T07:56:04.034Z,101394.06
2018-11-29T07:58:32.668Z,101385.31
2018-11-29T08:01:01.271Z,101392.61
2018-11-29T08:03:30.625Z,101386.81
2018-11-29T08:05:59.526Z,101386.26
2018-11-29T08:08:28.785Z,101387.32
2018-11-29T08:10:57.424Z,101399.03
2018-11-29T08:13:26.019Z,101396.52
2018-11-29T08:15:54.565Z,101401.52
2018-11-29T08:18:23.140Z,101398.25
2018-11-29T08:20:51.732Z,101405.07
2018-11-29T08:23:20.271Z,101404.67
2018-11-29T08:25:48.851Z,101411.72
2018-11-29T08:28:17.447Z,101403.23
2018-11-29T08:30:45.995Z,101402.05
2018-11-29T08:33:14.524Z,101395.87
2018-11-29T08:35:43.113Z,101391.11
2018-11-29T08:38:11.684Z,101379.33
2018-11-29T08:40:40.393Z,101385.23
2018-11-29T08:43:09.008Z,101384.62
2018-11-29T08:45:37.563Z,101384.98
2018-11-29T08:48:07.111Z,101392.75
2018-11-29T08:50:35.733Z,101392.58
2018-11-29T08:53:04.776Z,101385.83
2018-11-29T08:55:33.447Z,101381.73
2018-11-29T08:58:02.082Z,101386.69
2018-11-29T09:00:30.731Z,101388.08
2018-11-29T09:02:59.336Z,101378.73
2018-11-29T09:05:28.000Z,101375.55
2018-11-29T09:07:56.660Z,101367.22
2018-11-29T09:10:31.425Z,101372.19
2018-11-29T09:12:53.998Z,101378.73
2018-11-29T09:15:22.600Z,101367.70
2018-11-29T09:17:51.274Z,101367.33
2018-11-29T09:20:21.547Z,101371.42
2018-11-29T09:22:50.141Z,101355.70
2018-11-29T09:25:21.156Z,101354.98
2018-11-29T09:27:49.785Z,101344.59
2018-11-29T09:30:20.395Z,101344.87
2018-11-29T09:32:50.071Z,101342.25
2018-11-29T09:35:18.984Z,101335.70
2018-11-29T09:37:47.515Z,101353.30
2018-11-29T09:40:16.948Z,101336.06
2018-11-29T09:42:46.096Z,101335.13
2018-11-29T09:45:19.102Z,101329.15
2018-11-29T09:47:49.719Z,101325.66
2018-11-29T09:50:18.435Z,101329.52
2018-11-29T09:52:47.462Z,101320.50
2018-11-29T09:55:17.547Z,101318.13
2018-11-29T09:57:47.243Z,101308.73
2018-11-29T10:00:19.323Z,101309.73
2018-11-29T10:02:58.993Z,101306.47
2018-11-29T10:05:27.617Z,101316.69
2018-11-29T10:07:56.205Z,101304.48
2018-11-29T10:10:24.911Z,101299.45
2018-11-29T10:12:53.500Z,101305.42
2018-11-29T10:15:22.060Z,101292.31
2018-11-29T10:17:50.640Z,101296.02
2018-11-29T10:20:19.266Z,101296.34
2018-11-29T10:22:47.840Z,101289.38
2018-11-29T10:25:16.410Z,101277.91
2018-11-29T10:27:48.782Z,101270.84
2018-11-29T10:30:23.752Z,101276.16
2018-11-29T10:32:52.372Z,101268.95
2018-11-29T10:35:20.999Z,101270.26
2018-11-29T10:37:49.569Z,101255.13
2018-11-29T10:40:18.152Z,101252.80
2018-11-29T10:42:46.884Z,101245.64
2018-11-29T10:45:17.031Z,101256.64
2018-11-29T10:47:52.293Z,101261.37
2018-11-29T10:50:16.931Z,101258.16
2018-11-29T10:52:45.523Z,101256.14
2018-11-29T10:55:15.667Z,101257.16
2018-11-29T10:57:44.285Z,101258.38
2018-11-29T11:00:26.803Z,101249.11
2018-11-29T11:03:01.728Z,101245.78
2018-11-29T11:05:30.309Z,101247.34
2018-11-29T11:07:58.940Z,101241.42
2018-11-29T11:10:27.499Z,101231.04
2018-11-29T11:12:56.080Z,101221.89
2018-11-29T11:15:24.644Z,101220.41
2018-11-29T11:17:53.254Z,101214.05
2018-11-29T11:20:21.849Z,101208.55
2018-11-29T11:22:50.402Z,101209.28
2018-11-29T11:25:19.325Z,101202.46
2018-11-29T11:27:47.916Z,101195.45
2018-11-29T11:30:19.557Z,101196.30
2018-11-29T11:32:49.222Z,101194.55
2018-11-29T11:35:17.763Z,101204.47
2018-11-29T11:37:46.365Z,101199.20
2018-11-29T11:40:15.879Z,101192.75
2018-11-29T11:42:45.591Z,101197.85
2018-11-29T11:45:15.424Z,101176.25
2018-11-29T11:47:44.129Z,101172.85
2018-11-29T11:50:14.799Z,101162.92
2018-11-29T11:52:43.373Z,101159.22
2018-11-29T11:55:18.719Z,101155.03
2018-11-29T11:57:41.608Z,101168.67
2018-11-29T12:00:18.916Z,101162.45
2018-11-29T12:02:48.689Z,101156.26
2018-11-29T12:05:17.250Z,101162.84
2018-11-29T12:07:46.241Z,101148.98
2018-11-29T12:10:15.640Z,101142.05
2018-11-29T12:12:44.272Z,101144.47
2018-11-29T12:15:13.923Z,101140.64
2018-11-29T12:17:44.465Z,101149.25
2018-11-29T12:20:18.839Z,101144.45
2018-11-29T12:22:47.555Z,101139.68
2018-11-29T12:25:21.125Z,101129.01
2018-11-29T12:27:49.813Z,101128.05
2018-11-29T12:30:25.672Z,101130.70
2018-11-29T12:32:56.644Z,101122.80
2018-11-29T12:35:25.201Z,101122.33
2018-11-29T12:37:53.891Z,101117.30
2018-11-29T12:40:22.816Z,101115.86
2018-11-29T12:42:51.376Z,101125.21
2018-11-29T12:45:20.191Z,101119.83
2018-11-29T12:47:49.195Z,101122.69
2018-11-29T12:50:18.669Z,101114.92
2018-11-29T12:52:47.289Z,101117.08
2018-11-29T12:55:16.828Z,101117.92
2018-11-29T12:57:45.592Z,101108.70
2018-11-29T13:00:16.261Z,101107.13
2018-11-29T13:02:46.176Z,101106.53
2018-11-29T13:05:15.201Z,101111.08
2018-11-29T13:07:43.787Z,101110.25
2018-11-29T13:10:13.271Z,101118.87
2018-11-29T13:12:41.887Z,101105.09
2018-11-29T13:15:12.968Z,101105.48
2018-11-29T13:17:41.476Z,101098.42
2018-11-29T13:20:11.484Z,101115.53
2018-11-29T13:22:40.067Z,101112.07
2018-11-29T13:25:10.472Z,101118.87
2018-11-29T13:27:39.045Z,101113.60
2018-11-29T13:30:24.112Z,101106.54
2018-11-29T13:32:54.874Z,101100.80
2018-11-29T13:35:26.862Z,101103.44
2018-11-29T13:37:59.644Z,101103.20
2018-11-29T13:40:28.370Z,101094.84
2018-11-29T13:42:56.920Z,101100.67
2018-11-29T13:45:25.861Z,101100.67
2018-11-29T13:47:54.497Z,101095.30
2018-11-29T13:50:23.421Z,101102.13
2018-11-29T13:52:51.997Z,101098.75
2018-11-29T13:55:20.668Z,101106.18
2018-11-29T13:57:50.651Z,101090.49
2018-11-29T14:00:24.448Z,101086.19
2018-11-29T14:02:58.865Z,101090.86
2018-11-29T14:05:27.757Z,101084.97
2018-11-29T14:07:56.427Z,101086.66
2018-11-29T14:10:25.616Z,101088.33
2018-11-29T14:12:55.072Z,101092.13
2018-11-29T14:15:26.904Z,101097.28
2018-11-29T14:17:55.491Z,101097.97
2018-11-29T14:20:24.048Z,101099.17
2018-11-29T14:22:53.579Z,101098.58
2018-11-29T14:25:23.086Z,101095.80
2018-11-29T14:27:53.060Z,101104.88
2018-11-29T14:30:25.813Z,101096.60
2018-11-29T14:32:55.473Z,101101.72
2018-11-29T14:35:24.048Z,101094.19
2018-11-29T14:37:52.632Z,101095.14
2018-11-29T14:40:25.097Z,101092.72
2018-11-29T14:42:53.678Z,101092.20
2018-11-29T14:45:24.028Z,101075.95
2018-11-29T14:47:52.596Z,101074.36
2018-11-29T14:50:26.504Z,101085.31
2018-11-29T14:52:55.056Z,101083.12
2018-11-29T14:55:23.603Z,101088.84
2018-11-29T14:57:52.155Z,101082.47
2018-11-29T15:00:20.808Z,101077.57
2018-11-29T15:02:49.524Z,101081.83
2018-11-29T15:05:22.452Z,101079.19
2018-11-29T15:07:51.092Z,101070.31
2018-11-29T15:10:19.715Z,101076.34
2018-11-29T15:12:48.280Z,101080.03
2018-11-29T15:15:16.840Z,101070.09
2018-11-29T15:17:46.407Z,101071.27
2018-11-29T15:20:22.369Z,101069.34
2018-11-29T15:22:51.027Z,101065.47
2018-11-29T15:25:19.683Z,101065.05
2018-11-29T15:27:48.403Z,101061.70
2018-11-29T15:30:20.500Z,101061.91
2018-11-29T15:32:48.272Z,101065.34
2018-11-29T15:35:16.973Z,101064.98
2018-11-29T15:37:45.568Z,101063.97
2018-11-29T15:40:15.431Z,101064.22
2018-11-29T15:42:44.037Z,101064.67
2018-11-29T15:45:15.739Z,101059.25
2018-11-29T15:47:44.452Z,101070.56
2018-11-29T15:50:14.096Z,101050.94
2018-11-29T15:52:42.712Z,101051.34
2018-11-29T15:55:16.460Z,101042.03
2018-11-29T15:57:45.849Z,101047.86
2018-11-29T16:00:18.328Z,101045.54
2018-11-29T16:02:47.572Z,101044.45
2018-11-29T16:05:16.105Z,101039.20
2018-11-29T16:07:44.680Z,101040.04
2018-11-29T16:10:14.208Z,101038.55
2018-11-29T16:12:42.847Z,101038.52
2018-11-29T16:15:12.813Z,101042.28
2018-11-29T16:17:41.399Z,101035.22
2018-11-29T16:20:11.539Z,101034.45
2018-11-29T16:22:40.477Z,101027.91
2018-11-29T16:25:10.364Z,101029.91
2018-11-29T16:27:38.935Z,101023.94
2018-11-29T16:30:49.347Z,101029.00
2018-11-29T16:33:22.992Z,101018.66
2018-11-29T16:35:51.593Z,101018.62
2018-11-29T16:38:20.138Z,101016.66
2018-11-29T16:40:48.703Z,101018.34
2018-11-29T16:43:17.299Z,101017.97
2018-11-29T16:45:45.912Z,101024.16
2018-11-29T16:48:14.576Z,101015.94
2018-11-29T16:50:43.218Z,101014.26
2018-11-29T16:53:11.873Z,101008.77
2018-11-29T16:55:40.392Z,101013.64
2018-11-29T16:58:10.759Z,101002.58
2018-11-29T17:00:39.337Z,100997.16
2018-11-29T17:03:08.835Z,100999.99
2018-11-29T17:05:37.523Z,100991.92
2018-11-29T17:08:06.967Z,100985.66
2018-11-29T17:10:35.660Z,100983.51
2018-11-29T17:13:08.272Z,100986.57
2018-11-29T17:15:36.831Z,100989.59
2018-11-29T17:18:05.551Z,100999.30
2018-11-29T17:20:34.200Z,101000.36
2018-11-29T17:23:02.786Z,101000.83
2018-11-29T17:25:31.336Z,101004.39
2018-11-29T17:27:59.951Z,100999.63
2018-11-29T17:30:28.520Z,100997.27
2018-11-29T17:32:58.420Z,100997.95
2018-11-29T17:35:27.118Z,100991.55
2018-11-29T17:37:57.132Z,100990.97
2018-11-29T17:40:25.760Z,100986.20
2018-11-29T17:42:55.091Z,100986.49
2018-11-29T17:45:26.776Z,100981.08
2018-11-29T17:47:57.693Z,100980.56
2018-11-29T17:50:28.686Z,100979.03
2018-11-29T17:52:57.261Z,100985.11
2018-11-29T17:55:25.836Z,100984.75
2018-11-29T17:57:54.497Z,100991.55
2018-11-29T18:00:25.327Z,100990.06
2018-11-29T18:02:54.286Z,100986.57
2018-11-29T18:05:22.890Z,100983.40
2018-11-29T18:07:51.507Z,100979.00
2018-11-29T18:10:23.472Z,100972.92
2018-11-29T18:13:30.417Z,100978.71
2018-11-29T18:15:59.023Z,100969.10
2018-11-29T18:18:27.648Z,100971.25
2018-11-29T18:20:56.253Z,100969.83
2018-11-29T18:23:24.839Z,100971.14
2018-11-29T18:25:53.412Z,100967.68
2018-11-29T18:28:21.995Z,100975.66
2018-11-29T18:30:50.656Z,100963.58
2018-11-29T18:33:19.248Z,100965.72
2018-11-29T18:35:47.862Z,100963.94
2018-11-29T18:38:16.479Z,100962.73
2018-11-29T18:40:45.091Z,100953.09
2018-11-29T18:43:13.686Z,100939.27
2018-11-29T18:45:42.239Z,100947.81
2018-11-29T18:48:11.236Z,100938.84
2018-11-29T18:50:40.373Z,100944.55
2018-11-29T18:53:08.987Z,100942.41
2018-11-29T18:55:37.559Z,100937.53
2018-11-29T18:58:07.101Z,100943.23
2018-11-29T19:00:36.666Z,100919.66
2018-11-29T19:03:05.917Z,100926.11
2018-11-29T19:05:35.482Z,100931.92
2018-11-29T19:08:03.148Z,100923.59
2018-11-29T19:10:31.752Z,100915.27
2018-11-29T19:13:01.988Z,100910.86
2018-11-29T19:15:30.584Z,100911.33
2018-11-29T19:17:59.152Z,100909.08
2018-11-29T19:20:27.812Z,100908.53
2018-11-29T19:22:56.529Z,100904.02
2018-11-29T19:25:25.116Z,100898.41
2018-11-29T19:27:53.712Z,100907.00
2018-11-29T19:30:25.274Z,100908.09
2018-11-29T19:33:17.363Z,100895.83
2018-11-29T19:35:42.368Z,100895.27
2018-11-29T19:38:10.947Z,100890.87
2018-11-29T19:40:39.726Z,100888.72
2018-11-29T19:43:08.756Z,100890.50
2018-11-29T19:45:37.436Z,100882.78
2018-11-29T19:48:07.540Z,100883.52
2018-11-29T19:50:36.252Z,100885.55
2018-11-29T19:53:06.920Z,100889.11
2018-11-29T19:55:35.631Z,100887.44
2018-11-29T19:58:04.211Z,100891.07
2018-11-29T20:00:32.764Z,100892.02
2018-11-29T20:03:01.380Z,100888.81
2018-11-29T20:05:29.977Z,100889.40
2018-11-29T20:07:59.795Z,100882.26
2018-11-29T20:10:28.530Z,100883.57
2018-11-29T20:13:12.708Z,100866.42
2018-11-29T20:15:42.891Z,100886.44
2018-11-29T20:18:12.677Z,100884.77
2018-11-29T20:20:41.273Z,100889.17
2018-11-29T20:23:10.755Z,100883.82
2018-11-29T20:25:39.741Z,100891.09
2018-11-29T20:28:08.384Z,100877.99
2018-11-29T20:30:37.257Z,100883.59
2018-11-29T20:33:06.287Z,100883.23
2018-11-29T20:35:35.314Z,100887.53
2018-11-29T20:38:03.967Z,100882.52
2018-11-29T20:40:34.964Z,100878.58
2018-11-29T20:43:03.692Z,100874.76
2018-11-29T20:45:33.924Z,100869.62
2018-11-29T20:48:04.775Z,100867.96
2018-11-29T20:50:33.376Z,100863.67
2018-11-29T20:53:01.996Z,100860.10
2018-11-29T20:55:31.758Z,100857.67
2018-11-29T20:58:00.711Z,100861.13
2018-11-29T21:00:29.695Z,100875.28
2018-11-29T21:02:58.236Z,100870.41
2018-11-29T21:05:26.824Z,100870.41
2018-11-29T21:07:57.161Z,100871.83
2018-11-29T21:10:26.184Z,100867.06
2018-11-29T21:12:54.811Z,100868.02
2018-11-29T21:15:23.441Z,100865.87
2018-11-29T21:17:52.253Z,100866.53
2018-11-29T21:20:21.528Z,100858.67
2018-11-29T21:22:51.338Z,100853.44
2018-11-29T21:25:22.283Z,100847.83
2018-11-29T21:27:51.217Z,100852.12
2018-11-29T21:30:19.839Z,100842.59
2018-11-29T21:32:48.869Z,100843.18
2018-11-29T21:35:20.039Z,100848.89
2018-11-29T21:37:49.103Z,100841.03
2018-11-29T21:40:29.723Z,100830.86
2018-11-29T21:42:58.685Z,100834.06
2018-11-29T21:45:27.445Z,100822.56
2018-11-29T21:47:56.436Z,100826.38
2018-11-29T21:50:25.035Z,100819.35
2018-11-29T21:52:53.648Z,100809.55
2018-11-29T21:55:23.304Z,100810.19
2018-11-29T21:57:52.014Z,100815.53
2018-11-29T22:00:22.344Z,100808.41
2018-11-29T22:02:57.296Z,100800.55
2018-11-29T22:05:25.900Z,100810.44
2018-11-29T22:07:54.451Z,100798.17
2018-11-29T22:10:23.157Z,100789.59
2018-11-29T22:12:52.366Z,100780.67
2018-11-29T22:15:23.327Z,100789.25
2018-11-29T22:18:27.200Z,100791.15
2018-11-29T22:20:58.337Z,100788.05
2018-11-29T22:23:27.610Z,100790.56
2018-11-29T22:25:57.804Z,100792.27
2018-11-29T22:28:26.532Z,100793.94
2018-11-29T22:30:57.730Z,100791.79
2018-11-29T22:33:26.587Z,100787.38
2018-11-29T22:35:56.282Z,100788.70
2018-11-29T22:38:24.891Z,100788.41
2018-11-29T22:40:54.062Z,100783.45
2018-11-29T22:43:23.282Z,100782.70
2018-11-29T22:45:51.930Z,100787.94
2018-11-29T22:48:20.561Z,100783.17
2018-11-29T22:50:50.001Z,100781.03
2018-11-29T22:53:18.646Z,100780.31
2018-11-29T22:55:47.532Z,100776.02
2018-11-29T22:58:16.552Z,100765.54
2018-11-29T23:00:50.863Z,100764.12
2018-11-29T23:03:19.503Z,100758.87
2018-11-29T23:05:48.356Z,100766.97
2018-11-29T23:08:17.071Z,100761.00
2018-11-29T23:10:46.174Z,100752.39
2018-11-29T23:13:14.932Z,100764.46
2018-11-29T23:15:43.591Z,100760.89
2018-11-29T23:18:12.243Z,100764.46
2018-11-29T23:20:41.114Z,100767.63
2018-11-29T23:23:09.723Z,100768.11
2018-11-29T23:25:38.941Z,100766.69
2018-11-29T23:28:09.204Z,100756.44
2018-11-29T23:30:39.178Z,100749.53
2018-11-29T23:33:08.713Z,100755.83
2018-11-29T23:35:38.826Z,100752.02
2018-11-29T23:38:07.433Z,100743.04
2018-11-29T23:40:36.051Z,100740.67
2018-11-29T23:43:05.101Z,100735.43
2018-11-29T23:45:33.834Z,100731.98
2018-11-29T23:48:02.416Z,100742.56
2018-11-29T23:50:31.574Z,100727.97
2018-11-29T23:53:00.478Z,100720.95
2018-11-29T23:55:29.061Z,100721.14
2018-11-29T23:57:57.647Z,100728.80
